Time;durP1;ratioP1;P1;durP2;ratioP2;P2;SDS_P1;SDS_P2;PMS_P1;PMS_P2;Temp;Humidity;BMP_temperature;BMP_pressure;BME280_temperature;BME280_humidity;BME280_pressure;Samples;Min_cycle;Max_cycle;Signal;HPM_P1;HPM_P2
2022/08/19 00:00:27;;;;;;;10.38;9.38;;;20.50;99.90;;;;;;4964021;28;20255;-83
2022/08/19 00:02:53;;;;;;;10.90;9.88;;;20.90;99.90;;;;;;4964388;28;20215;-84
2022/08/19 00:05:20;;;;;;;10.27;9.38;;;20.30;99.90;;;;;;4964484;28;20185;-85
2022/08/19 00:07:46;;;;;;;11.07;10.00;;;20.00;99.90;;;;;;4956818;28;20192;-85
2022/08/19 00:10:14;;;;;;;9.75;8.88;;;20.40;99.90;;;;;;4957769;28;20189;-86
2022/08/19 00:12:40;;;;;;;10.57;9.15;;;20.00;99.90;;;;;;4964194;28;20281;-86
2022/08/19 00:15:11;;;;;;;11.45;9.25;;;20.40;99.90;;;;;;4963632;28;20228;-86
2022/08/19 00:17:37;;;;;;;10.50;9.50;;;20.00;99.90;;;;;;4964642;28;20222;-85
2022/08/19 00:20:04;;;;;;;10.63;8.93;;;20.70;99.90;;;;;;4956746;28;20676;-85
2022/08/19 00:22:31;;;;;;;10.45;9.40;;;20.00;99.90;;;;;;4964219;28;20189;-84
2022/08/19 00:24:56;;;;;;;10.23;9.18;;;20.60;99.90;;;;;;4964854;28;20177;-84
2022/08/19 00:27:22;;;;;;;10.45;9.38;;;20.30;99.90;;;;;;4957375;28;20189;-84
2022/08/19 00:29:47;;;;;;;10.32;9.30;;;20.40;99.90;;;;;;4964621;28;20183;-84
2022/08/19 00:32:13;;;;;;;9.63;8.60;;;20.10;99.90;;;;;;4964243;28;20188;-87
2022/08/19 00:34:39;;;;;;;9.35;8.45;;;20.10;99.90;;;;;;4964056;28;20240;-84
2022/08/19 00:37:04;;;;;;;11.05;9.32;;;20.10;99.90;;;;;;4958798;28;20205;-84
2022/08/19 00:39:30;;;;;;;10.00;9.10;;;20.10;99.90;;;;;;4959301;28;20184;-84
2022/08/19 00:41:57;;;;;;;10.32;9.05;;;20.00;99.90;;;;;;4959115;28;20177;-84
2022/08/19 00:44:26;;;;;;;10.05;9.13;;;20.10;99.90;;;;;;4957283;28;20300;-83
2022/08/19 00:46:55;;;;;;;9.00;8.15;;;20.10;99.90;;;;;;4956777;28;20213;-83
2022/08/19 00:49:27;;;;;;;10.40;9.20;;;20.40;99.90;;;;;;4956775;28;20568;-83
2022/08/19 00:52:06;;;;;;;10.32;9.30;;;20.10;99.90;;;;;;4963977;28;20287;-85
2022/08/19 00:54:32;;;;;;;9.52;8.63;;;20.30;99.90;;;;;;4963947;28;20213;-85
2022/08/19 00:57:01;;;;;;;9.57;8.65;;;20.40;99.90;;;;;;4964453;28;20215;-84
2022/08/19 00:59:28;;;;;;;13.43;9.48;;;20.30;99.90;;;;;;4963646;28;20177;-84
2022/08/19 01:01:53;;;;;;;9.82;8.90;;;20.70;99.90;;;;;;4959008;28;20183;-84
2022/08/19 01:04:19;;;;;;;10.45;9.38;;;20.50;99.90;;;;;;4968171;28;20280;-83
2022/08/19 01:06:44;;;;;;;10.68;9.40;;;20.20;99.90;;;;;;4967765;28;20683;-84
2022/08/19 01:09:10;;;;;;;10.23;9.25;;;20.10;99.90;;;;;;4968229;28;20665;-84
2022/08/19 01:11:40;;;;;;;11.27;9.82;;;20.20;99.90;;;;;;4968148;28;20184;-84
2022/08/19 01:14:07;;;;;;;10.23;9.27;;;20.50;99.90;;;;;;4959511;28;20231;-83
2022/08/19 01:16:34;;;;;;;10.00;9.15;;;20.10;99.90;;;;;;4960581;28;20243;-85
2022/08/19 01:19:01;;;;;;;11.07;9.98;;;20.50;99.90;;;;;;4967647;28;20613;-86
2022/08/19 01:22:00;;;;;;;9.85;8.85;;;20.00;99.90;;;;;;4967801;28;20177;-84
2022/08/19 01:24:25;;;;;;;9.75;8.68;;;20.10;99.90;;;;;;4967411;28;20197;-84
2022/08/19 01:26:51;;;;;;;10.20;9.20;;;20.00;99.90;;;;;;4967772;28;21287;-83
2022/08/19 01:29:17;;;;;;;10.02;9.02;;;19.90;99.90;;;;;;4966499;28;20216;-83
2022/08/19 01:31:42;;;;;;;9.25;8.35;;;20.10;99.90;;;;;;4966744;28;20185;-83
2022/08/19 01:34:09;;;;;;;10.48;9.48;;;20.00;99.90;;;;;;4967235;28;20204;-83
2022/08/19 01:36:42;;;;;;;9.35;8.45;;;19.90;99.90;;;;;;4966946;28;20217;-83
2022/08/19 01:39:13;;;;;;;9.93;8.98;;;20.10;99.90;;;;;;4959325;28;20189;-85
2022/08/19 01:41:39;;;;;;;9.48;8.57;;;20.10;99.90;;;;;;4959516;28;20186;-85
2022/08/19 01:44:06;;;;;;;13.23;9.20;;;20.10;99.90;;;;;;4966331;28;20735;-85
2022/08/19 01:46:33;;;;;;;9.70;8.70;;;20.00;99.90;;;;;;4966381;28;20181;-85
2022/08/19 01:48:59;;;;;;;10.43;9.35;;;20.00;99.90;;;;;;4961296;28;20185;-84
2022/08/19 01:51:25;;;;;;;10.27;9.15;;;20.10;99.90;;;;;;4960461;28;20204;-84
2022/08/19 01:53:51;;;;;;;10.18;9.18;;;19.80;99.90;;;;;;4960641;28;20209;-84
2022/08/19 01:56:18;;;;;;;9.45;8.48;;;19.90;99.90;;;;;;4959886;28;20209;-84
2022/08/19 01:58:53;;;;;;;10.75;9.00;;;19.70;99.90;;;;;;4967611;28;20276;-84
2022/08/19 02:01:19;;;;;;;9.35;8.55;;;19.80;99.90;;;;;;4958911;28;20176;-84
2022/08/19 02:03:45;;;;;;;10.85;9.50;;;19.80;99.90;;;;;;4967330;28;20208;-85
2022/08/19 02:06:11;;;;;;;8.90;8.00;;;20.10;99.90;;;;;;4967671;28;20192;-85
2022/08/19 02:08:38;;;;;;;9.60;8.63;;;19.60;99.90;;;;;;4966820;28;20181;-85
2022/08/19 02:11:05;;;;;;;10.13;9.05;;;20.10;99.90;;;;;;4966446;28;20185;-84
2022/08/19 02:13:31;;;;;;;9.43;8.48;;;20.10;99.90;;;;;;4959962;28;20211;-84
2022/08/19 02:15:57;;;;;;;9.85;8.85;;;19.50;99.90;;;;;;4967218;28;20206;-84
2022/08/19 02:18:23;;;;;;;10.07;8.60;;;19.80;99.90;;;;;;4976376;28;20848;-85
2022/08/19 02:20:48;;;;;;;10.07;9.13;;;19.40;99.90;;;;;;4966812;28;20268;-85
2022/08/19 02:23:16;;;;;;;10.30;9.23;;;19.60;99.90;;;;;;4966754;28;20581;-84
2022/08/19 02:25:44;;;;;;;9.18;8.27;;;19.80;99.90;;;;;;4967246;28;20189;-84
2022/08/19 02:28:09;;;;;;;10.23;8.75;;;19.50;99.90;;;;;;4960598;28;20192;-84
2022/08/19 02:30:35;;;;;;;8.40;7.65;;;19.90;99.90;;;;;;4966635;28;20280;-84
2022/08/19 02:33:01;;;;;;;9.60;8.63;;;20.10;99.90;;;;;;4958107;28;20229;-83
2022/08/19 02:35:26;;;;;;;9.10;8.20;;;19.50;99.90;;;;;;4959083;28;20703;-83
2022/08/19 02:40:36;;;;;;;9.23;8.32;;;19.40;99.90;;;;;;4959552;28;20211;-84
2022/08/19 02:43:06;;;;;;;9.48;8.23;;;19.50;99.90;;;;;;4959022;28;20691;-85
2022/08/19 02:45:37;;;;;;;8.82;7.95;;;19.60;99.90;;;;;;4957987;28;20538;-85
2022/08/19 02:48:04;;;;;;;9.52;8.50;;;19.50;99.90;;;;;;4961532;28;20190;-83
2022/08/19 02:50:29;;;;;;;9.50;8.38;;;19.40;99.90;;;;;;4959582;28;20182;-84
2022/08/19 02:52:55;;;;;;;10.25;8.40;;;19.60;99.90;;;;;;4967733;28;20220;-82
2022/08/19 02:55:20;;;;;;;9.07;8.15;;;19.40;99.90;;;;;;4960751;28;20236;-83
2022/08/19 02:57:47;;;;;;;9.05;8.15;;;19.40;99.90;;;;;;4959599;28;20174;-83
2022/08/19 03:00:14;;;;;;;11.45;7.93;;;19.80;99.90;;;;;;4961183;28;20185;-83
2022/08/19 03:02:40;;;;;;;9.02;8.13;;;19.30;99.90;;;;;;4966658;28;20376;-83
2022/08/19 03:05:07;;;;;;;9.07;8.38;;;19.40;99.90;;;;;;4959910;28;20670;-83
2022/08/19 03:07:33;;;;;;;10.88;8.68;;;19.30;99.90;;;;;;4959899;28;20256;-87
2022/08/19 03:09:58;;;;;;;8.98;8.05;;;19.60;99.90;;;;;;4958998;28;20293;-82
2022/08/19 03:12:24;;;;;;;10.10;8.23;;;19.50;99.90;;;;;;4958199;28;20239;-83
2022/08/19 03:14:50;;;;;;;9.60;8.63;;;19.30;99.90;;;;;;4959686;28;20208;-83
2022/08/19 03:17:16;;;;;;;9.10;8.18;;;19.70;99.90;;;;;;4960388;28;20205;-83
2022/08/19 03:19:42;;;;;;;11.73;8.55;;;19.40;99.90;;;;;;4965821;28;20188;-83
2022/08/19 03:22:09;;;;;;;9.10;8.20;;;19.20;99.90;;;;;;4967030;28;20267;-85
2022/08/19 03:24:34;;;;;;;9.15;8.35;;;19.70;99.90;;;;;;4957671;28;20204;-85
2022/08/19 03:27:00;;;;;;;10.48;9.32;;;19.20;99.90;;;;;;4966447;28;20188;-84
2022/08/19 03:29:28;;;;;;;9.57;8.30;;;19.50;99.90;;;;;;4966701;28;20236;-84
2022/08/19 03:31:54;;;;;;;9.50;8.30;;;19.50;99.90;;;;;;4958990;28;20220;-82
2022/08/19 03:34:26;;;;;;;9.07;8.18;;;19.40;99.90;;;;;;4966750;28;20205;-83
2022/08/19 03:36:57;;;;;;;12.38;8.20;;;19.40;99.90;;;;;;4966476;28;20205;-82
2022/08/19 03:39:24;;;;;;;9.82;8.35;;;19.10;99.90;;;;;;4959589;28;21024;-83
2022/08/19 03:41:51;;;;;;;10.27;8.50;;;19.70;99.90;;;;;;4965213;28;20177;-88
2022/08/19 03:44:21;;;;;;;8.15;7.18;;;19.20;99.90;;;;;;4957275;28;20206;-83
2022/08/19 03:46:52;;;;;;;7.60;6.80;;;19.10;99.90;;;;;;4957161;28;20605;-84
2022/08/19 03:49:19;;;;;;;9.02;8.13;;;19.50;99.90;;;;;;4968577;28;20648;-84
2022/08/19 03:51:47;;;;;;;9.02;8.07;;;19.20;99.90;;;;;;4967991;28;20222;-84
2022/08/19 03:54:15;;;;;;;8.65;7.80;;;19.10;99.90;;;;;;4965227;28;20208;-83
2022/08/19 03:56:42;;;;;;;8.68;7.80;;;19.00;99.90;;;;;;4958333;28;20202;-83
2022/08/19 03:59:15;;;;;;;9.27;8.45;;;19.20;99.90;;;;;;4967052;28;20690;-84
2022/08/19 04:01:42;;;;;;;9.68;8.27;;;19.10;99.90;;;;;;4959466;28;20181;-84
2022/08/19 04:04:07;;;;;;;10.13;8.57;;;19.10;99.90;;;;;;4960246;28;20255;-84
2022/08/19 04:06:36;;;;;;;10.07;8.23;;;19.00;99.90;;;;;;4958186;28;20201;-83
2022/08/19 04:09:05;;;;;;;9.95;9.05;;;19.70;99.90;;;;;;4957893;28;20288;-84
2022/08/19 04:11:35;;;;;;;10.23;8.73;;;19.00;99.90;;;;;;4966643;28;20192;-84
2022/08/19 04:14:00;;;;;;;12.27;9.18;;;19.70;99.90;;;;;;4957932;28;20578;-84
2022/08/19 04:16:29;;;;;;;10.32;8.27;;;18.80;99.90;;;;;;4966126;28;20212;-84
2022/08/19 04:18:58;;;;;;;10.95;8.95;;;18.90;99.90;;;;;;4964702;28;20185;-84
2022/08/19 04:21:26;;;;;;;11.27;8.30;;;18.90;99.90;;;;;;4957528;28;20182;-83
2022/08/19 04:23:52;;;;;;;9.43;8.52;;;18.80;99.90;;;;;;4967077;28;20207;-84
2022/08/19 04:26:22;;;;;;;9.95;8.95;;;18.80;99.90;;;;;;4966213;28;20749;-86
2022/08/19 04:28:48;;;;;;;11.38;9.07;;;19.60;99.90;;;;;;4965230;28;20189;-86
2022/08/19 04:31:16;;;;;;;11.07;9.18;;;18.80;99.90;;;;;;4956738;28;21222;-82
2022/08/19 04:33:42;;;;;;;9.57;8.60;;;19.10;99.90;;;;;;4965893;28;20228;-83
2022/08/19 04:36:15;;;;;;;10.52;9.23;;;18.70;99.90;;;;;;4965380;28;20668;-83
2022/08/19 04:38:40;;;;;;;9.63;8.68;;;19.20;99.90;;;;;;4958025;28;20275;-85
2022/08/19 04:43:50;;;;;;;10.90;8.90;;;18.80;99.90;;;;;;4959488;28;20240;-88
2022/08/19 04:46:17;;;;;;;12.60;8.73;;;18.70;99.90;;;;;;4965547;28;20221;-83
2022/08/19 04:48:43;;;;;;;12.02;8.50;;;18.80;99.90;;;;;;4965910;28;20185;-84
2022/08/19 04:51:12;;;;;;;11.38;8.32;;;19.30;99.90;;;;;;4961179;28;20197;-83
2022/08/19 04:53:40;;;;;;;10.60;8.88;;;18.90;99.90;;;;;;4965059;28;20205;-84
2022/08/19 04:56:07;;;;;;;9.68;8.63;;;18.70;99.90;;;;;;4957222;28;20675;-87
2022/08/19 04:58:33;;;;;;;10.25;8.90;;;19.40;99.90;;;;;;4966018;28;20271;-83
2022/08/19 05:01:02;;;;;;;11.55;8.88;;;19.10;99.90;;;;;;4957940;28;20173;-84
2022/08/19 05:03:33;;;;;;;9.77;8.77;;;19.40;99.90;;;;;;4955813;28;20209;-85
2022/08/19 05:06:04;;;;;;;10.32;8.90;;;19.10;99.90;;;;;;4965297;28;20181;-85
2022/08/19 05:08:30;;;;;;;11.35;10.15;;;18.90;99.90;;;;;;4956940;28;20182;-86
2022/08/19 05:10:57;;;;;;;11.00;9.90;;;18.60;99.90;;;;;;4965235;28;20228;-84
2022/08/19 05:13:23;;;;;;;10.43;9.45;;;19.20;99.90;;;;;;4965632;28;20212;-84
2022/08/19 05:15:56;;;;;;;12.23;10.63;;;19.00;99.90;;;;;;4956967;28;20263;-84
2022/08/19 05:23:56;;;;;;;11.15;10.05;;;18.50;99.90;;;;;;4958273;28;20299;-85
2022/08/19 05:26:21;;;;;;;11.48;10.18;;;18.40;99.90;;;;;;4964498;28;20662;-85
2022/08/19 05:28:47;;;;;;;11.00;9.90;;;18.50;99.90;;;;;;4965760;28;20529;-84
2022/08/19 05:31:12;;;;;;;10.77;9.68;;;18.40;99.90;;;;;;4965454;28;20216;-84
2022/08/19 05:33:39;;;;;;;11.05;9.77;;;18.40;99.90;;;;;;4965195;28;20698;-84
2022/08/19 05:36:07;;;;;;;10.52;9.50;;;18.50;99.90;;;;;;4965307;28;20205;-83
2022/08/19 05:38:33;;;;;;;10.50;9.48;;;18.40;99.90;;;;;;4964582;28;20272;-84
2022/08/19 05:40:59;;;;;;;9.77;8.77;;;19.20;99.90;;;;;;4964701;28;20235;-85
2022/08/19 05:43:25;;;;;;;10.32;8.88;;;18.50;99.90;;;;;;4964536;28;20205;-85
2022/08/19 05:45:50;;;;;;;9.80;8.80;;;18.80;99.90;;;;;;4957442;28;20196;-86
2022/08/19 05:48:20;;;;;;;10.73;8.60;;;19.40;99.90;;;;;;4959245;28;20181;-84
2022/08/19 05:50:46;;;;;;;10.40;9.40;;;18.60;99.90;;;;;;4968110;28;20196;-86
2022/08/19 05:53:12;;;;;;;9.98;8.98;;;19.20;99.90;;;;;;4962020;28;20696;-83
2022/08/19 05:55:38;;;;;;;9.55;8.50;;;19.10;99.90;;;;;;4968589;28;20205;-84
2022/08/19 05:58:07;;;;;;;9.68;8.15;;;18.60;99.90;;;;;;4968533;28;20248;-86
2022/08/19 06:00:33;;;;;;;9.93;8.90;;;18.60;99.90;;;;;;4968031;28;20260;-85
2022/08/19 06:03:03;;;;;;;9.02;8.23;;;18.90;99.90;;;;;;4968010;28;20617;-84
2022/08/19 06:05:32;;;;;;;9.25;8.35;;;19.00;99.90;;;;;;4976358;28;20177;-82
2022/08/19 06:08:00;;;;;;;11.05;9.95;;;19.10;99.90;;;;;;4959278;28;20184;-82
2022/08/19 06:10:26;;;;;;;11.23;8.82;;;18.80;99.90;;;;;;4965977;28;20265;-83
2022/08/19 06:12:52;;;;;;;9.63;7.95;;;19.00;99.90;;;;;;4967180;28;20619;-82
2022/08/19 06:15:18;;;;;;;8.65;7.47;;;18.60;99.90;;;;;;4963581;28;20196;-84
2022/08/19 06:17:46;;;;;;;8.70;7.88;;;18.60;99.90;;;;;;4960434;28;20253;-84
2022/08/19 06:20:14;;;;;;;9.60;8.57;;;18.40;99.90;;;;;;4964649;28;20220;-83
2022/08/19 06:22:45;;;;;;;8.68;7.78;;;18.60;99.90;;;;;;4952206;28;20280;-84
2022/08/19 06:25:12;;;;;;;8.85;7.95;;;18.70;99.90;;;;;;4963610;28;20189;-84
2022/08/19 06:27:39;;;;;;;9.38;8.48;;;18.60;99.90;;;;;;4950603;28;20178;-83
2022/08/19 06:30:05;;;;;;;9.57;8.52;;;18.90;99.90;;;;;;4962502;28;20269;-83
2022/08/19 06:32:31;;;;;;;9.38;8.40;;;18.60;99.90;;;;;;4963385;28;20651;-83
2022/08/19 06:34:57;;;;;;;8.48;7.70;;;18.90;99.90;;;;;;4965234;28;20189;-84
2022/08/19 06:37:22;;;;;;;8.38;7.57;;;18.70;99.90;;;;;;4964073;28;20300;-84
2022/08/19 06:39:48;;;;;;;9.48;7.85;;;19.30;99.90;;;;;;4964887;28;20181;-84
2022/08/19 06:42:16;;;;;;;9.45;8.48;;;18.70;99.90;;;;;;4962546;28;20219;-84
2022/08/19 06:44:45;;;;;;;9.88;8.88;;;18.60;99.90;;;;;;4961579;28;20392;-84
2022/08/19 06:47:13;;;;;;;9.23;8.20;;;19.00;99.90;;;;;;4955038;28;20279;-84
2022/08/19 06:49:39;;;;;;;9.88;8.88;;;18.60;99.90;;;;;;4965988;28;20268;-84
2022/08/19 06:52:05;;;;;;;10.35;8.60;;;18.90;99.90;;;;;;4963486;28;20299;-83
2022/08/19 06:54:31;;;;;;;8.80;7.88;;;18.60;99.90;;;;;;4956190;28;20209;-83
2022/08/19 06:57:02;;;;;;;8.00;7.22;;;18.50;99.90;;;;;;4964038;28;20304;-85
2022/08/19 06:59:31;;;;;;;8.93;7.45;;;18.50;99.90;;;;;;4962460;28;20592;-83
2022/08/19 07:01:57;;;;;;;9.73;8.23;;;18.60;99.90;;;;;;4950897;28;20181;-83
2022/08/19 07:04:27;;;;;;;9.00;7.50;;;18.70;99.90;;;;;;4962119;28;20269;-83
2022/08/19 07:06:59;;;;;;;9.07;7.20;;;19.00;99.90;;;;;;4956051;28;20572;-83
2022/08/19 07:09:24;;;;;;;7.90;7.10;;;18.60;99.90;;;;;;4963603;28;20248;-84
2022/08/19 07:11:52;;;;;;;8.02;7.22;;;19.30;99.90;;;;;;4964897;28;20275;-83
2022/08/19 07:14:21;;;;;;;7.63;6.90;;;18.60;99.90;;;;;;4960602;28;20205;-83
2022/08/19 07:16:49;;;;;;;8.95;7.38;;;18.90;99.90;;;;;;4955885;28;20212;-83
2022/08/19 07:19:17;;;;;;;8.00;7.20;;;18.70;99.90;;;;;;4950358;28;20189;-83
2022/08/19 07:21:43;;;;;;;6.90;6.25;;;19.20;99.90;;;;;;4965515;28;20493;-83
2022/08/19 07:24:09;;;;;;;7.63;6.82;;;18.70;99.90;;;;;;4963522;28;20220;-83
2022/08/19 07:26:39;;;;;;;9.30;6.85;;;18.70;99.90;;;;;;4958851;28;20526;-83
2022/08/19 07:29:06;;;;;;;7.30;6.55;;;18.70;99.90;;;;;;4961916;28;20188;-83
2022/08/19 07:31:36;;;;;;;11.48;6.70;;;19.00;99.90;;;;;;4964322;28;20189;-83
2022/08/19 07:34:03;;;;;;;7.50;6.80;;;18.60;99.90;;;;;;4965839;28;20589;-83
2022/08/19 07:36:32;;;;;;;7.50;6.00;;;19.10;99.90;;;;;;4956567;28;20284;-83
2022/08/19 07:39:00;;;;;;;7.55;6.60;;;18.70;99.90;;;;;;4962775;28;20177;-83
2022/08/19 07:41:28;;;;;;;7.53;6.47;;;18.70;99.90;;;;;;4955060;28;20182;-83
2022/08/19 07:43:54;;;;;;;6.55;5.47;;;18.70;99.90;;;;;;4953752;28;20268;-83
2022/08/19 07:46:20;;;;;;;6.32;5.30;;;19.20;99.90;;;;;;4961315;28;20181;-82
2022/08/19 07:48:47;;;;;;;5.68;5.03;;;18.60;99.90;;;;;;4964682;28;20448;-83
2022/08/19 07:51:17;;;;;;;7.22;5.43;;;18.70;99.90;;;;;;4958162;28;20204;-83
2022/08/19 07:53:44;;;;;;;6.18;5.30;;;19.50;99.90;;;;;;4961879;28;20293;-85
2022/08/19 07:56:11;;;;;;;5.57;4.97;;;18.70;99.90;;;;;;4959765;28;20204;-85
2022/08/19 07:58:39;;;;;;;6.72;5.93;;;18.70;99.90;;;;;;4955961;28;20536;-83
2022/08/19 08:01:07;;;;;;;7.18;6.47;;;19.00;99.90;;;;;;4947302;28;21144;-82
2022/08/19 08:09:15;;;;;;;5.93;5.43;;;18.60;99.90;;;;;;4955451;28;20209;-83
2022/08/19 08:12:15;;;;;;;6.70;6.07;;;18.60;99.90;;;;;;4950351;28;20242;-83
2022/08/19 08:14:52;;;;;;;6.63;5.82;;;18.60;99.90;;;;;;4941959;28;20217;-82
2022/08/19 08:17:21;;;;;;;6.90;6.22;;;18.60;99.90;;;;;;4948486;28;20216;-83
2022/08/19 08:19:50;;;;;;;6.43;5.82;;;18.70;99.90;;;;;;4956197;28;20193;-83
2022/08/19 08:25:04;;;;;;;6.35;5.75;;;19.20;99.90;;;;;;4951246;28;20211;-83
2022/08/19 08:27:30;;;;;;;7.35;5.82;;;18.80;99.90;;;;;;4958552;28;20474;-83
2022/08/19 08:29:56;;;;;;;7.50;5.30;;;18.90;99.90;;;;;;4963173;28;20192;-83
2022/08/19 08:32:22;;;;;;;6.25;5.65;;;18.80;99.90;;;;;;4952761;28;20189;-82
2022/08/19 08:34:48;;;;;;;5.93;4.95;;;18.90;99.90;;;;;;4963138;28;20208;-84
2022/08/19 08:37:14;;;;;;;6.88;6.07;;;19.10;99.90;;;;;;4960984;28;20307;-83
2022/08/19 08:39:39;;;;;;;8.05;5.35;;;18.90;99.90;;;;;;4952351;28;20177;-83
2022/08/19 08:42:34;;;;;;;6.13;5.53;;;19.20;99.90;;;;;;4948957;28;20184;-83
2022/08/19 08:45:05;;;;;;;6.25;5.50;;;18.90;99.90;;;;;;4947548;28;20276;-83
2022/08/19 08:47:37;;;;;;;5.60;4.40;;;19.30;99.90;;;;;;4951177;28;20600;-83
2022/08/19 08:50:09;;;;;;;6.28;5.47;;;19.20;99.90;;;;;;4957279;28;20821;-83
2022/08/19 08:52:42;;;;;;;7.50;5.00;;;19.10;99.90;;;;;;4947012;28;20200;-83
2022/08/19 08:55:16;;;;;;;5.47;5.00;;;19.30;99.90;;;;;;4954009;28;20872;-84
2022/08/19 08:57:51;;;;;;;6.38;4.88;;;19.40;99.90;;;;;;4959604;28;20268;-84
2022/08/19 09:00:22;;;;;;;7.80;5.60;;;19.60;99.90;;;;;;4959643;28;20196;-83
2022/08/19 09:02:48;;;;;;;5.88;5.38;;;19.60;99.90;;;;;;4963196;28;20212;-81
2022/08/19 09:05:14;;;;;;;5.72;4.70;;;19.70;99.90;;;;;;4962058;28;20223;-81
2022/08/19 09:08:05;;;;;;;4.75;4.35;;;19.80;99.90;;;;;;4957624;28;20715;-81
2022/08/19 09:10:42;;;;;;;5.60;5.03;;;19.90;99.90;;;;;;4955265;28;20197;-81
2022/08/19 09:13:15;;;;;;;5.82;4.35;;;20.10;99.90;;;;;;4961373;28;20225;-81
2022/08/19 09:15:53;;;;;;;4.57;4.18;;;20.10;99.90;;;;;;4957452;28;20197;-81
2022/08/19 09:18:19;;;;;;;4.70;4.20;;;20.10;99.90;;;;;;4953862;28;20189;-82
2022/08/19 09:20:47;;;;;;;3.97;3.67;;;20.10;99.90;;;;;;4957235;28;20334;-81
2022/08/19 09:23:12;;;;;;;4.70;4.30;;;20.00;99.90;;;;;;4960914;28;20200;-81
2022/08/19 09:25:39;;;;;;;4.72;4.20;;;20.00;99.90;;;;;;4963935;28;20853;-81
2022/08/19 09:28:06;;;;;;;4.32;3.92;;;20.20;99.90;;;;;;4956678;28;20190;-81
2022/08/19 09:30:40;;;;;;;4.20;3.83;;;20.50;99.90;;;;;;4974910;28;20193;-81
2022/08/19 09:33:06;;;;;;;4.93;4.05;;;20.30;99.90;;;;;;4965507;28;20244;-80
2022/08/19 09:35:33;;;;;;;4.45;4.05;;;20.40;99.90;;;;;;4965543;28;20211;-81
2022/08/19 09:38:00;;;;;;;5.35;4.32;;;20.20;99.90;;;;;;4965097;28;20190;-82
2022/08/19 09:40:28;;;;;;;5.05;3.95;;;20.30;99.90;;;;;;4972301;28;20212;-81
2022/08/19 09:42:54;;;;;;;5.68;4.50;;;20.20;99.90;;;;;;4957102;28;20204;-80
2022/08/19 09:45:21;;;;;;;4.07;3.75;;;20.10;99.90;;;;;;4959158;28;20268;-81
2022/08/19 09:47:49;;;;;;;4.85;4.43;;;20.10;99.90;;;;;;4965506;28;20177;-81
2022/08/19 09:50:14;;;;;;;4.30;3.90;;;20.10;99.90;;;;;;4955838;28;20185;-81
2022/08/19 09:52:41;;;;;;;4.80;4.40;;;20.30;99.90;;;;;;4965369;28;20245;-81
2022/08/19 09:55:09;;;;;;;5.20;4.65;;;20.20;99.90;;;;;;4963954;28;20228;-81
2022/08/19 09:57:35;;;;;;;4.80;4.38;;;20.10;99.90;;;;;;4963125;28;20209;-81
2022/08/19 10:00:02;;;;;;;4.93;4.25;;;20.10;99.90;;;;;;4963787;28;20587;-81
2022/08/19 10:02:31;;;;;;;4.57;4.18;;;20.20;99.90;;;;;;4951688;28;20186;-81
2022/08/19 10:07:40;;;;;;;4.68;4.30;;;20.60;99.90;;;;;;4951633;28;20280;-81
2022/08/19 10:10:09;;;;;;;5.90;5.10;;;20.20;99.90;;;;;;4955156;28;20268;-80
2022/08/19 10:12:35;;;;;;;4.93;4.50;;;20.10;99.90;;;;;;4955641;28;20213;-81
2022/08/19 10:15:01;;;;;;;5.30;4.80;;;20.00;99.90;;;;;;4966375;28;20220;-81
2022/08/19 10:17:27;;;;;;;5.63;5.03;;;20.10;99.90;;;;;;4956229;28;20239;-81
2022/08/19 10:19:53;;;;;;;7.95;5.00;;;20.20;99.90;;;;;;4952279;28;20212;-82
2022/08/19 10:22:19;;;;;;;5.72;4.43;;;20.30;99.90;;;;;;4959522;28;20178;-83
2022/08/19 10:24:46;;;;;;;5.30;4.70;;;20.40;99.90;;;;;;4955378;28;20201;-86
2022/08/19 10:27:13;;;;;;;5.00;4.50;;;20.60;92.50;;;;;;4959121;28;20200;-83
2022/08/19 10:29:38;;;;;;;5.35;4.95;;;20.50;96.50;;;;;;4961724;28;20673;-83
2022/08/19 10:32:08;;;;;;;5.20;4.70;;;20.60;99.90;;;;;;4956406;28;20224;-83
2022/08/19 10:34:35;;;;;;;5.25;4.55;;;20.60;85.20;;;;;;4958910;28;20233;-82
2022/08/19 10:37:04;;;;;;;5.50;4.90;;;20.60;88.80;;;;;;4963144;28;20763;-82
2022/08/19 10:39:35;;;;;;;5.28;4.78;;;20.90;95.20;;;;;;4955558;28;20232;-82
2022/08/19 10:42:05;;;;;;;5.53;5.13;;;20.80;99.90;;;;;;4956948;28;20187;-82
2022/08/19 10:44:32;;;;;;;5.45;5.05;;;21.00;98.10;;;;;;4966222;28;20200;-82
2022/08/19 10:46:58;;;;;;;5.53;5.00;;;21.20;58.90;;;;;;4963055;28;20229;-83
2022/08/19 10:49:24;;;;;;;5.72;5.18;;;21.70;63.60;;;;;;4969782;28;20185;-82
2022/08/19 10:57:18;;;;;;;5.07;4.20;;;22.20;11.90;;;;;;4954278;28;20343;-82
2022/08/19 10:59:44;;;;;;;4.95;4.45;;;22.60;1.00;;;;;;4950397;28;20458;-82
2022/08/19 11:02:11;;;;;;;4.57;4.22;;;22.90;1.00;;;;;;4956577;28;20177;-82
2022/08/19 11:04:38;;;;;;;4.80;4.30;;;22.90;1.00;;;;;;4957625;28;20223;-83
2022/08/19 11:07:05;;;;;;;5.00;4.60;;;23.20;1.00;;;;;;4951584;28;20193;-82
2022/08/19 11:09:31;;;;;;;4.97;4.57;;;23.00;1.00;;;;;;4965368;28;20248;-82
2022/08/19 11:11:57;;;;;;;5.25;4.75;;;23.20;1.00;;;;;;4955486;28;20249;-82
2022/08/19 11:14:25;;;;;;;4.82;4.43;;;23.10;1.00;;;;;;4954033;28;20213;-82
2022/08/19 11:16:53;;;;;;;5.95;4.50;;;23.20;1.00;;;;;;4948459;28;20208;-82
2022/08/19 11:19:19;;;;;;;5.75;5.25;;;23.20;1.00;;;;;;4963818;28;20189;-82
2022/08/19 11:21:47;;;;;;;5.40;4.90;;;23.20;99.90;;;;;;4961994;28;20879;-83
2022/08/19 11:24:20;;;;;;;5.55;5.07;;;23.20;1.00;;;;;;4965516;28;20212;-82
2022/08/19 11:26:48;;;;;;;6.05;5.45;;;23.70;99.90;;;;;;4950485;28;20863;-82
2022/08/19 11:29:13;;;;;;;5.22;4.82;;;23.20;99.90;;;;;;4948381;28;20185;-82
2022/08/19 11:31:43;;;;;;;5.25;4.82;;;23.30;1.00;;;;;;4964780;28;20240;-82
2022/08/19 11:34:12;;;;;;;5.05;4.65;;;23.40;1.00;;;;;;4964327;28;20205;-82
2022/08/19 11:36:40;;;;;;;5.07;4.68;;;23.30;25.90;;;;;;4961490;28;20607;-81
2022/08/19 11:39:11;;;;;;;5.10;4.57;;;23.30;1.00;;;;;;4952989;28;20209;-81
2022/08/19 11:41:37;;;;;;;5.00;4.60;;;23.10;99.90;;;;;;4965529;28;20185;-82
2022/08/19 11:44:04;;;;;;;4.90;4.43;;;23.30;99.90;;;;;;4957780;28;20204;-82
2022/08/19 11:46:30;;;;;;;5.47;4.97;;;23.60;99.90;;;;;;4958665;28;20288;-82
2022/08/19 11:48:58;;;;;;;6.80;5.28;;;23.60;1.00;;;;;;4950188;28;20891;-82
2022/08/19 11:51:25;;;;;;;4.32;4.03;;;23.00;99.90;;;;;;4957245;28;20224;-82
2022/08/19 11:53:55;;;;;;;4.43;3.88;;;23.30;99.90;;;;;;4952564;28;20201;-82
2022/08/19 11:56:21;;;;;;;4.35;4.05;;;23.20;99.90;;;;;;4956438;28;20678;-82
2022/08/19 11:58:47;;;;;;;5.00;4.47;;;23.40;99.90;;;;;;4961825;28;20193;-81
2022/08/19 12:01:16;;;;;;;5.53;4.82;;;23.20;99.90;;;;;;4962530;28;20233;-82
2022/08/19 12:03:43;;;;;;;4.82;4.32;;;23.40;99.90;;;;;;4960965;28;20272;-82
2022/08/19 12:06:13;;;;;;;4.70;4.30;;;23.30;99.90;;;;;;4946966;28;20189;-82
2022/08/19 12:08:39;;;;;;;5.28;4.78;;;23.50;99.90;;;;;;4950854;28;20181;-81
2022/08/19 12:11:07;;;;;;;7.38;4.53;;;23.50;99.90;;;;;;4948419;28;20664;-81
2022/08/19 12:13:34;;;;;;;4.40;4.10;;;23.70;99.90;;;;;;4963782;28;20205;-82
2022/08/19 12:16:00;;;;;;;5.07;4.55;;;23.60;99.90;;;;;;4963828;28;20239;-85
2022/08/19 12:18:26;;;;;;;4.32;3.92;;;23.80;57.80;;;;;;4968407;28;20553;-81
2022/08/19 12:20:54;;;;;;;6.50;5.90;;;24.10;1.00;;;;;;4960383;28;20231;-81
2022/08/19 12:23:20;;;;;;;7.85;5.82;;;24.20;1.00;;;;;;4950570;28;20201;-81
2022/08/19 12:25:51;;;;;;;6.47;4.85;;;24.20;1.00;;;;;;4962936;28;20212;-79
2022/08/19 12:28:18;;;;;;;5.60;5.10;;;24.20;92.00;;;;;;4959576;28;20189;-82
2022/08/19 12:30:44;;;;;;;6.10;5.55;;;24.10;1.00;;;;;;4946190;28;20770;-81
2022/08/19 12:33:09;;;;;;;4.90;4.47;;;24.30;1.00;;;;;;4960139;28;20213;-80
2022/08/19 12:35:38;;;;;;;10.93;5.88;;;24.10;1.00;;;;;;4960572;28;20184;-81
2022/08/19 12:38:04;;;;;;;16.02;5.43;;;24.20;1.00;;;;;;4949968;28;20654;-81
2022/08/19 12:40:30;;;;;;;6.05;4.32;;;24.10;1.00;;;;;;4963189;28;20180;-81
2022/08/19 12:42:56;;;;;;;9.80;4.90;;;24.30;1.00;;;;;;4955124;28;20627;-80
2022/08/19 12:45:22;;;;;;;5.53;4.88;;;24.30;1.00;;;;;;4945573;28;20186;-80
2022/08/19 12:47:47;;;;;;;5.15;4.63;;;24.30;1.00;;;;;;4956047;28;20235;-82
2022/08/19 12:50:13;;;;;;;5.68;4.40;;;24.40;99.90;;;;;;4960846;28;20177;-80
2022/08/19 12:52:40;;;;;;;5.13;4.72;;;24.20;1.00;;;;;;4948610;28;20193;-81
2022/08/19 12:55:08;;;;;;;7.43;4.68;;;24.20;1.00;;;;;;4960657;28;20656;-81
2022/08/19 12:57:35;;;;;;;5.30;4.45;;;24.20;99.90;;;;;;4954621;28;20212;-82
2022/08/19 13:00:15;;;;;;;5.93;4.13;;;24.30;1.00;;;;;;4949560;28;20550;-81
2022/08/19 13:02:44;;;;;;;4.97;3.92;;;24.40;86.70;;;;;;4962356;28;20195;-81
2022/08/19 13:05:13;;;;;;;4.95;4.30;;;24.50;99.90;;;;;;4955106;28;20188;-81
2022/08/19 13:07:40;;;;;;;6.20;5.15;;;24.50;1.00;;;;;;4949201;28;20233;-81
2022/08/19 13:10:08;;;;;;;5.93;5.00;;;24.20;99.90;;;;;;4960369;28;20276;-82
2022/08/19 13:12:34;;;;;;;6.72;4.82;;;24.30;99.90;;;;;;4948624;28;20184;-80
2022/08/19 13:15:00;;;;;;;4.90;4.38;;;24.10;99.90;;;;;;4962561;28;20263;-81